sensor_id;sensor_type;location;lat;lon;timestamp;pressure;altitude;pressure_sealevel;temperature;humidity
75991;BME280;64673;52.276;10.560;2023-11-21T00:00:01;100097.06;;;8.08;98.47
75991;BME280;64673;52.276;10.560;2023-11-21T00:02:27;100098.69;;;8.04;98.37
75991;BME280;64673;52.276;10.560;2023-11-21T00:04:53;100102.16;;;7.99;99.30
75991;BME280;64673;52.276;10.560;2023-11-21T00:07:18;100096.22;;;7.92;98.94
75991;BME280;64673;52.276;10.560;2023-11-21T00:09:43;100100.25;;;7.95;99.43
75991;BME280;64673;52.276;10.560;2023-11-21T00:12:09;100093.03;;;8.00;99.15
75991;BME280;64673;52.276;10.560;2023-11-21T00:14:36;100098.91;;;7.97;98.59
75991;BME280;64673;52.276;10.560;2023-11-21T00:17:02;100103.72;;;7.95;99.55
75991;BME280;64673;52.276;10.560;2023-11-21T00:19:27;100105.06;;;7.88;99.02
75991;BME280;64673;52.276;10.560;2023-11-21T00:21:52;100108.59;;;7.93;99.57
75991;BME280;64673;52.276;10.560;2023-11-21T00:24:18;100104.53;;;7.91;99.26
75991;BME280;64673;52.276;10.560;2023-11-21T00:26:43;100104.25;;;7.87;99.06
75991;BME280;64673;52.276;10.560;2023-11-21T00:29:13;100106.94;;;7.82;99.73
75991;BME280;64673;52.276;10.560;2023-11-21T00:31:39;100110.66;;;7.76;99.72
75991;BME280;64673;52.276;10.560;2023-11-21T00:34:04;100107.75;;;7.83;99.96
75991;BME280;64673;52.276;10.560;2023-11-21T00:36:31;100118.19;;;7.79;100.00
75991;BME280;64673;52.276;10.560;2023-11-21T00:38:57;100111.19;;;7.78;100.00
75991;BME280;64673;52.276;10.560;2023-11-21T00:41:22;100116.00;;;7.71;99.93
75991;BME280;64673;52.276;10.560;2023-11-21T00:43:47;100117.88;;;7.76;100.00
75991;BME280;64673;52.276;10.560;2023-11-21T00:46:13;100120.28;;;7.67;100.00
75991;BME280;64673;52.276;10.560;2023-11-21T00:48:38;100125.13;;;7.70;100.00
75991;BME280;64673;52.276;10.560;2023-11-21T00:51:04;100129.38;;;7.66;100.00
75991;BME280;64673;52.276;10.560;2023-11-21T00:53:31;100123.47;;;7.64;100.00
75991;BME280;64673;52.276;10.560;2023-11-21T00:55:56;100132.63;;;7.68;100.00
75991;BME280;64673;52.276;10.560;2023-11-21T00:58:25;100133.13;;;7.65;100.00
75991;BME280;64673;52.276;10.560;2023-11-21T01:00:51;100134.19;;;7.59;100.00
75991;BME280;64673;52.276;10.560;2023-11-21T01:03:16;100133.13;;;7.65;100.00
75991;BME280;64673;52.276;10.560;2023-11-21T01:05:42;100118.09;;;7.59;100.00
75991;BME280;64673;52.276;10.560;2023-11-21T01:08:07;100132.06;;;7.61;100.00
75991;BME280;64673;52.276;10.560;2023-11-21T01:10:32;100136.31;;;7.57;100.00
75991;BME280;64673;52.276;10.560;2023-11-21T01:12:59;100127.72;;;7.55;100.00
75991;BME280;64673;52.276;10.560;2023-11-21T01:15:25;100129.13;;;7.62;100.00
75991;BME280;64673;52.276;10.560;2023-11-21T01:17:51;100142.00;;;7.65;100.00
75991;BME280;64673;52.276;10.560;2023-11-21T01:20:17;100145.22;;;7.62;100.00
75991;BME280;64673;52.276;10.560;2023-11-21T01:22:42;100122.06;;;7.51;100.00
75991;BME280;64673;52.276;10.560;2023-11-21T01:25:08;100145.47;;;7.61;100.00
75991;BME280;64673;52.276;10.560;2023-11-21T01:27:34;100137.94;;;7.58;100.00
75991;BME280;64673;52.276;10.560;2023-11-21T01:30:00;100145.44;;;7.56;100.00
75991;BME280;64673;52.276;10.560;2023-11-21T01:32:26;100138.44;;;7.55;100.00
75991;BME280;64673;52.276;10.560;2023-11-21T01:34:51;100148.66;;;7.58;100.00
75991;BME280;64673;52.276;10.560;2023-11-21T01:37:17;100140.56;;;7.53;100.00
75991;BME280;64673;52.276;10.560;2023-11-21T01:39:43;100140.06;;;7.56;100.00
75991;BME280;64673;52.276;10.560;2023-11-21T01:42:09;100139.75;;;7.52;100.00
75991;BME280;64673;52.276;10.560;2023-11-21T01:44:34;100144.63;;;7.55;100.00
75991;BME280;64673;52.276;10.560;2023-11-21T01:47:01;100153.22;;;7.57;100.00
75991;BME280;64673;52.276;10.560;2023-11-21T01:49:33;100163.72;;;7.64;100.00
75991;BME280;64673;52.276;10.560;2023-11-21T01:51:59;100159.41;;;7.58;100.00
75991;BME280;64673;52.276;10.560;2023-11-21T01:54:25;100157.53;;;7.58;100.00
75991;BME280;64673;52.276;10.560;2023-11-21T01:56:50;100166.91;;;7.56;100.00
75991;BME280;64673;52.276;10.560;2023-11-21T01:59:19;100167.13;;;7.49;100.00
75991;BME280;64673;52.276;10.560;2023-11-21T02:01:46;100169.63;;;7.61;100.00
75991;BME280;64673;52.276;10.560;2023-11-21T02:04:12;100179.25;;;7.57;100.00
75991;BME280;64673;52.276;10.560;2023-11-21T02:06:38;100171.78;;;7.64;100.00
75991;BME280;64673;52.276;10.560;2023-11-21T02:09:04;100185.69;;;7.56;100.00
75991;BME280;64673;52.276;10.560;2023-11-21T02:11:30;100177.94;;;7.64;100.00
75991;BME280;64673;52.276;10.560;2023-11-21T02:13:58;100169.63;;;7.61;100.00
75991;BME280;64673;52.276;10.560;2023-11-21T02:16:24;100176.63;;;7.62;100.00
75991;BME280;64673;52.276;10.560;2023-11-21T02:18:51;100172.06;;;7.62;100.00
75991;BME280;64673;52.276;10.560;2023-11-21T02:21:17;100172.84;;;7.63;100.00
75991;BME280;64673;52.276;10.560;2023-11-21T02:23:44;100176.06;;;7.65;100.00
75991;BME280;64673;52.276;10.560;2023-11-21T02:26:11;100176.63;;;7.62;100.00
75991;BME280;64673;52.276;10.560;2023-11-21T02:28:37;100179.25;;;7.57;100.00
75991;BME280;64673;52.276;10.560;2023-11-21T02:31:04;100178.19;;;7.58;100.00
75991;BME280;64673;52.276;10.560;2023-11-21T02:33:30;100184.13;;;7.65;100.00
75991;BME280;64673;52.276;10.560;2023-11-21T02:35:59;100188.22;;;7.72;100.00
75991;BME280;64673;52.276;10.560;2023-11-21T02:38:24;100181.22;;;7.71;100.00
75991;BME280;64673;52.276;10.560;2023-11-21T02:40:52;100186.59;;;7.71;100.00
75991;BME280;64673;52.276;10.560;2023-11-21T02:43:18;100187.91;;;7.69;100.00
75991;BME280;64673;52.276;10.560;2023-11-21T02:45:44;100188.22;;;7.72;100.00
75991;BME280;64673;52.276;10.560;2023-11-21T02:48:09;100190.63;;;7.74;100.00
75991;BME280;64673;52.276;10.560;2023-11-21T02:50:34;100190.63;;;7.74;100.00
75991;BME280;64673;52.276;10.560;2023-11-21T02:53:03;100187.13;;;7.73;100.00
75991;BME280;64673;52.276;10.560;2023-11-21T02:55:30;100187.94;;;7.74;100.00
75991;BME280;64673;52.276;10.560;2023-11-21T02:57:59;100190.63;;;7.74;100.00
75991;BME280;64673;52.276;10.560;2023-11-21T03:00:25;100195.47;;;7.77;100.00
75991;BME280;64673;52.276;10.560;2023-11-21T03:02:50;100192.72;;;7.67;100.00
75991;BME280;64673;52.276;10.560;2023-11-21T03:05:16;100205.41;;;7.77;100.00
75991;BME280;64673;52.276;10.560;2023-11-21T03:07:41;100194.41;;;7.73;100.00
75991;BME280;64673;52.276;10.560;2023-11-21T03:10:08;100205.41;;;7.77;100.00
75991;BME280;64673;52.276;10.560;2023-11-21T03:12:37;100202.72;;;7.71;100.00
75991;BME280;64673;52.276;10.560;2023-11-21T03:15:04;100207.72;;;7.63;100.00
75991;BME280;64673;52.276;10.560;2023-11-21T03:17:29;100209.91;;;7.66;100.00
75991;BME280;64673;52.276;10.560;2023-11-21T03:19:54;100212.34;;;7.67;100.00
75991;BME280;64673;52.276;10.560;2023-11-21T03:22:20;100207.78;;;7.68;100.00
75991;BME280;64673;52.276;10.560;2023-11-21T03:24:45;100212.63;;;7.71;100.00
75991;BME280;64673;52.276;10.560;2023-11-21T03:27:11;100212.88;;;7.69;100.00
75991;BME280;64673;52.276;10.560;2023-11-21T03:29:37;100214.19;;;7.62;100.00
75991;BME280;64673;52.276;10.560;2023-11-21T03:32:02;100209.09;;;7.65;100.00
75991;BME280;64673;52.276;10.560;2023-11-21T03:34:28;100214.50;;;7.70;100.00
75991;BME280;64673;52.276;10.560;2023-11-21T03:36:53;100220.63;;;7.66;100.00
75991;BME280;64673;52.276;10.560;2023-11-21T03:39:20;100219.56;;;7.62;100.00
75991;BME280;64673;52.276;10.560;2023-11-21T03:41:46;100222.50;;;7.60;100.00
75991;BME280;64673;52.276;10.560;2023-11-21T03:44:11;100230.00;;;7.63;100.00
75991;BME280;64673;52.276;10.560;2023-11-21T03:46:37;100239.97;;;7.68;100.00
75991;BME280;64673;52.276;10.560;2023-11-21T03:49:02;100229.75;;;7.65;100.00
75991;BME280;64673;52.276;10.560;2023-11-21T03:51:27;100245.34;;;7.68;100.00
75991;BME280;64673;52.276;10.560;2023-11-21T03:53:53;100241.03;;;7.62;100.00
75991;BME280;64673;52.276;10.560;2023-11-21T03:56:19;100245.41;;;7.73;100.00
75991;BME280;64673;52.276;10.560;2023-11-21T03:58:47;100244.31;;;7.74;100.00
75991;BME280;64673;52.276;10.560;2023-11-21T04:01:23;100242.72;;;7.73;100.00
75991;BME280;64673;52.276;10.560;2023-11-21T04:03:49;100238.34;;;7.62;100.00
75991;BME280;64673;52.276;10.560;2023-11-21T04:06:14;100248.03;;;7.68;100.00
75991;BME280;64673;52.276;10.560;2023-11-21T04:08:40;100250.47;;;7.69;100.00
75991;BME280;64673;52.276;10.560;2023-11-21T04:11:05;100258.53;;;7.75;100.00
75991;BME280;64673;52.276;10.560;2023-11-21T04:13:30;100249.16;;;7.77;100.00
75991;BME280;64673;52.276;10.560;2023-11-21T04:15:56;100257.47;;;7.76;100.00
75991;BME280;64673;52.276;10.560;2023-11-21T04:18:21;100256.66;;;7.75;100.00
75991;BME280;64673;52.276;10.560;2023-11-21T04:20:48;100257.53;;;7.81;100.00
75991;BME280;64673;52.276;10.560;2023-11-21T04:23:15;100263.69;;;7.81;100.00
75991;BME280;64673;52.276;10.560;2023-11-21T04:25:41;100259.41;;;7.80;100.00
75991;BME280;64673;52.276;10.560;2023-11-21T04:28:06;100270.69;;;7.82;100.00
75991;BME280;64673;52.276;10.560;2023-11-21T04:30:32;100266.59;;;7.75;100.00
75991;BME280;64673;52.276;10.560;2023-11-21T04:32:58;100275.72;;;7.73;100.00
75991;BME280;64673;52.276;10.560;2023-11-21T04:35:23;100269.31;;;7.80;100.00
75991;BME280;64673;52.276;10.560;2023-11-21T04:37:48;100276.34;;;7.86;100.00
75991;BME280;64673;52.276;10.560;2023-11-21T04:40:16;100272.56;;;7.82;100.00
75991;BME280;64673;52.276;10.560;2023-11-21T04:42:41;100278.44;;;7.79;100.00
75991;BME280;64673;52.276;10.560;2023-11-21T04:45:07;100285.44;;;7.80;100.00
75991;BME280;64673;52.276;10.560;2023-11-21T04:47:37;100285.19;;;7.81;100.00
75991;BME280;64673;52.276;10.560;2023-11-21T04:50:03;100289.69;;;7.76;100.00
75991;BME280;64673;52.276;10.560;2023-11-21T04:52:29;100295.06;;;7.76;100.00
75991;BME280;64673;52.276;10.560;2023-11-21T04:54:54;100297.38;;;7.62;100.00
75991;BME280;64673;52.276;10.560;2023-11-21T04:57:21;100307.59;;;7.65;100.00
75991;BME280;64673;52.276;10.560;2023-11-21T04:59:48;100301.66;;;7.63;100.00
75991;BME280;64673;52.276;10.560;2023-11-21T05:02:13;100309.81;;;7.73;100.00
75991;BME280;64673;52.276;10.560;2023-11-21T05:04:39;100307.97;;;7.79;100.00
75991;BME280;64673;52.276;10.560;2023-11-21T05:07:04;100315.44;;;7.71;100.00
75991;BME280;64673;52.276;10.560;2023-11-21T05:09:29;100319.19;;;7.70;100.00
75991;BME280;64673;52.276;10.560;2023-11-21T05:11:57;100316.44;;;7.65;100.00
75991;BME280;64673;52.276;10.560;2023-11-21T05:14:22;100320.97;;;7.60;100.00
75991;BME280;64673;52.276;10.560;2023-11-21T05:16:48;100322.63;;;7.66;100.00
75991;BME280;64673;52.276;10.560;2023-11-21T05:19:13;100322.03;;;7.59;100.00
75991;BME280;64673;52.276;10.560;2023-11-21T05:21:38;100331.16;;;7.58;100.00
75991;BME280;64673;52.276;10.560;2023-11-21T05:24:04;100341.91;;;7.63;100.00
75991;BME280;64673;52.276;10.560;2023-11-21T05:26:30;100334.59;;;7.53;100.00
75991;BME280;64673;52.276;10.560;2023-11-21T05:28:56;100337.34;;;7.58;100.00
75991;BME280;64673;52.276;10.560;2023-11-21T05:31:21;100343.50;;;7.59;100.00
75991;BME280;64673;52.276;10.560;2023-11-21T05:33:47;100341.09;;;7.57;100.00
75991;BME280;64673;52.276;10.560;2023-11-21T05:36:12;100341.91;;;7.58;100.00
75991;BME280;64673;52.276;10.560;2023-11-21T05:38:38;100341.59;;;7.54;100.00
75991;BME280;64673;52.276;10.560;2023-11-21T05:41:03;100349.06;;;7.52;100.00
75991;BME280;64673;52.276;10.560;2023-11-21T05:43:30;100352.31;;;7.54;100.00
75991;BME280;64673;52.276;10.560;2023-11-21T05:45:56;100353.13;;;7.55;100.00
75991;BME280;64673;52.276;10.560;2023-11-21T05:48:21;100352.41;;;7.64;100.00
75991;BME280;64673;52.276;10.560;2023-11-21T05:50:46;100356.38;;;7.57;100.00
75991;BME280;64673;52.276;10.560;2023-11-21T05:53:14;100352.72;;;7.68;100.00
75991;BME280;64673;52.276;10.560;2023-11-21T05:55:41;100361.34;;;7.70;100.00
75991;BME280;64673;52.276;10.560;2023-11-21T05:58:07;100360.22;;;7.66;100.00
75991;BME280;64673;52.276;10.560;2023-11-21T06:00:33;100367.19;;;7.67;100.00
75991;BME280;64673;52.276;10.560;2023-11-21T06:02:58;100368.50;;;7.64;100.00
75991;BME280;64673;52.276;10.560;2023-11-21T06:05:24;100373.44;;;7.72;100.00
75991;BME280;64673;52.276;10.560;2023-11-21T06:07:51;100382.75;;;7.65;100.00
75991;BME280;64673;52.276;10.560;2023-11-21T06:10:22;100381.78;;;7.76;100.00
75991;BME280;64673;52.276;10.560;2023-11-21T06:12:48;100386.06;;;7.72;100.00
75991;BME280;64673;52.276;10.560;2023-11-21T06:15:14;100396.22;;;7.70;100.00
75991;BME280;64673;52.276;10.560;2023-11-21T06:17:41;100391.59;;;7.65;100.00
75991;BME280;64673;52.276;10.560;2023-11-21T06:20:08;100403.84;;;7.51;100.00
75991;BME280;64673;52.276;10.560;2023-11-21T06:22:37;100404.50;;;7.42;100.00
75991;BME280;64673;52.276;10.560;2023-11-21T06:25:03;100400.41;;;7.34;100.00
75991;BME280;64673;52.276;10.560;2023-11-21T06:27:31;100412.13;;;7.50;100.00
75991;BME280;64673;52.276;10.560;2023-11-21T06:29:57;100416.22;;;7.30;100.00
75991;BME280;64673;52.276;10.560;2023-11-21T06:32:22;100426.97;;;7.09;100.00
75991;BME280;64673;52.276;10.560;2023-11-21T06:34:48;100433.31;;;7.03;100.00
75991;BME280;64673;52.276;10.560;2023-11-21T06:37:15;100439.91;;;6.95;100.00
75991;BME280;64673;52.276;10.560;2023-11-21T06:39:42;100430.97;;;6.89;100.00
75991;BME280;64673;52.276;10.560;2023-11-21T06:42:07;100439.91;;;6.95;100.00
75991;BME280;64673;52.276;10.560;2023-11-21T06:44:32;100444.00;;;6.81;100.00
75991;BME280;64673;52.276;10.560;2023-11-21T06:46:58;100456.97;;;6.89;100.00
75991;BME280;64673;52.276;10.560;2023-11-21T06:49:24;100462.72;;;6.59;100.00
75991;BME280;64673;52.276;10.560;2023-11-21T06:51:49;100469.47;;;6.61;100.00
75991;BME280;64673;52.276;10.560;2023-11-21T06:54:15;100477.09;;;6.53;100.00
75991;BME280;64673;52.276;10.560;2023-11-21T06:56:40;100478.22;;;6.57;100.00
75991;BME280;64673;52.276;10.560;2023-11-21T06:59:06;100483.50;;;6.69;100.00
75991;BME280;64673;52.276;10.560;2023-11-21T07:01:33;100481.41;;;6.54;100.00
75991;BME280;64673;52.276;10.560;2023-11-21T07:04:04;100492.84;;;6.49;100.00
75991;BME280;64673;52.276;10.560;2023-11-21T07:06:30;100495.22;;;6.63;100.00
75991;BME280;64673;52.276;10.560;2023-11-21T07:08:56;100500.97;;;6.54;100.00
75991;BME280;64673;52.276;10.560;2023-11-21T07:11:21;100499.84;;;6.34;100.00
75991;BME280;64673;52.276;10.560;2023-11-21T07:13:47;100496.19;;;6.23;100.00
75991;BME280;64673;52.276;10.560;2023-11-21T07:16:13;100497.47;;;6.37;100.00
75991;BME280;64673;52.276;10.560;2023-11-21T07:18:40;100508.19;;;6.37;100.00
75991;BME280;64673;52.276;10.560;2023-11-21T07:21:05;100502.81;;;6.37;100.00
75991;BME280;64673;52.276;10.560;2023-11-21T07:23:31;100512.50;;;6.38;100.00
75991;BME280;64673;52.276;10.560;2023-11-21T07:25:56;100498.94;;;6.28;100.00
75991;BME280;64673;52.276;10.560;2023-11-21T07:28:21;100519.72;;;6.21;100.00
75991;BME280;64673;52.276;10.560;2023-11-21T07:30:46;100514.81;;;6.18;100.00
75991;BME280;64673;52.276;10.560;2023-11-21T07:33:13;100523.63;;;6.30;100.00
75991;BME280;64673;52.276;10.560;2023-11-21T07:35:38;100532.53;;;6.19;100.00
75991;BME280;64673;52.276;10.560;2023-11-21T07:38:03;100531.38;;;6.15;100.00
75991;BME280;64673;52.276;10.560;2023-11-21T07:40:28;100538.22;;;6.22;100.00
75991;BME280;64673;52.276;10.560;2023-11-21T07:42:54;100548.94;;;6.39;100.00
75991;BME280;64673;52.276;10.560;2023-11-21T07:45:22;100547.31;;;6.38;100.00
75991;BME280;64673;52.276;10.560;2023-11-21T07:47:48;100553.53;;;6.55;100.00
75991;BME280;64673;52.276;10.560;2023-11-21T07:50:13;100557.78;;;6.40;100.00
75991;BME280;64673;52.276;10.560;2023-11-21T07:52:38;100568.50;;;6.40;100.00
75991;BME280;64673;52.276;10.560;2023-11-21T07:55:05;100570.53;;;6.49;100.00
75991;BME280;64673;52.276;10.560;2023-11-21T07:57:30;100575.72;;;6.39;100.00
75991;BME280;64673;52.276;10.560;2023-11-21T07:59:56;100575.97;;;6.38;100.00
75991;BME280;64673;52.276;10.560;2023-11-21T08:02:21;100579.53;;;6.27;100.00
75991;BME280;64673;52.276;10.560;2023-11-21T08:04:46;100586.75;;;6.26;100.00
75991;BME280;64673;52.276;10.560;2023-11-21T08:07:14;100607.66;;;6.12;100.00
75991;BME280;64673;52.276;10.560;2023-11-21T08:09:39;100604.59;;;6.20;100.00
75991;BME280;64673;52.276;10.560;2023-11-21T08:12:05;100596.41;;;6.27;100.00
75991;BME280;64673;52.276;10.560;2023-11-21T08:14:30;100605.22;;;6.11;100.00
75991;BME280;64673;52.276;10.560;2023-11-21T08:16:56;100608.47;;;6.13;100.00
75991;BME280;64673;52.276;10.560;2023-11-21T08:19:23;100614.91;;;6.29;100.00
75991;BME280;64673;52.276;10.560;2023-11-21T08:21:50;100615.47;;;6.14;100.00
75991;BME280;64673;52.276;10.560;2023-11-21T08:24:16;100617.06;;;6.15;100.00
75991;BME280;64673;52.276;10.560;2023-11-21T08:26:41;100620.19;;;6.23;100.00
75991;BME280;64673;52.276;10.560;2023-11-21T08:29:07;100621.56;;;6.26;100.00
75991;BME280;64673;52.276;10.560;2023-11-21T08:31:32;100628.94;;;6.19;100.00
75991;BME280;64673;52.276;10.560;2023-11-21T08:33:57;100626.56;;;6.34;100.00
75991;BME280;64673;52.276;10.560;2023-11-21T08:36:23;100625.44;;;6.18;100.00
75991;BME280;64673;52.276;10.560;2023-11-21T08:38:49;100631.63;;;6.36;100.00
75991;BME280;64673;52.276;10.560;2023-11-21T08:41:15;100626.84;;;6.38;100.00
75991;BME280;64673;52.276;10.560;2023-11-21T08:43:41;100634.47;;;6.29;100.00
75991;BME280;64673;52.276;10.560;2023-11-21T08:46:07;100635.66;;;6.50;100.00
75991;BME280;64673;52.276;10.560;2023-11-21T08:48:35;100649.22;;;6.43;99.71
75991;BME280;64673;52.276;10.560;2023-11-21T08:51:01;100647.47;;;6.37;99.57
75991;BME280;64673;52.276;10.560;2023-11-21T08:53:26;100659.44;;;6.46;98.67
75991;BME280;64673;52.276;10.560;2023-11-21T08:55:51;100658.84;;;6.16;97.17
75991;BME280;64673;52.276;10.560;2023-11-21T08:58:19;100659.44;;;6.18;98.42
75991;BME280;64673;52.276;10.560;2023-11-21T09:00:44;100662.78;;;6.25;98.76
75991;BME280;64673;52.276;10.560;2023-11-21T09:03:11;100654.28;;;6.28;97.32
75991;BME280;64673;52.276;10.560;2023-11-21T09:05:40;100660.97;;;6.14;97.10
75991;BME280;64673;52.276;10.560;2023-11-21T09:08:05;100666.88;;;6.16;96.81
75991;BME280;64673;52.276;10.560;2023-11-21T09:10:33;100670.25;;;6.23;97.36
75991;BME280;64673;52.276;10.560;2023-11-21T09:13:00;100668.31;;;6.07;95.53
75991;BME280;64673;52.276;10.560;2023-11-21T09:15:26;100673.78;;;6.40;95.22
75991;BME280;64673;52.276;10.560;2023-11-21T09:17:51;100670.56;;;6.27;95.71
75991;BME280;64673;52.276;10.560;2023-11-21T09:20:16;100685.06;;;6.14;94.54
75991;BME280;64673;52.276;10.560;2023-11-21T09:22:42;100678.63;;;6.27;94.36
75991;BME280;64673;52.276;10.560;2023-11-21T09:25:10;100684.31;;;6.30;94.71
75991;BME280;64673;52.276;10.560;2023-11-21T09:27:35;100689.47;;;6.20;93.85
75991;BME280;64673;52.276;10.560;2023-11-21T09:30:03;100684.69;;;6.22;95.17
75991;BME280;64673;52.276;10.560;2023-11-21T09:32:30;100697.88;;;6.12;93.53
75991;BME280;64673;52.276;10.560;2023-11-21T09:34:56;100699.16;;;6.09;93.97
75991;BME280;64673;52.276;10.560;2023-11-21T09:37:23;100711.28;;;6.12;94.49
75991;BME280;64673;52.276;10.560;2023-11-21T09:39:49;100712.06;;;6.24;95.55
75991;BME280;64673;52.276;10.560;2023-11-21T09:42:38;100714.03;;;6.17;94.92
75991;BME280;64673;52.276;10.560;2023-11-21T09:45:21;100718.28;;;6.41;92.95
75991;BME280;64673;52.276;10.560;2023-11-21T09:47:49;100717.88;;;6.21;93.59
75991;BME280;64673;52.276;10.560;2023-11-21T09:50:17;100722.78;;;6.24;93.77
75991;BME280;64673;52.276;10.560;2023-11-21T09:52:55;100726.91;;;6.43;94.76
75991;BME280;64673;52.276;10.560;2023-11-21T09:55:26;100729.47;;;6.38;94.01
75991;BME280;64673;52.276;10.560;2023-11-21T09:57:56;100735.09;;;6.25;93.56
75991;BME280;64673;52.276;10.560;2023-11-21T10:00:22;100735.94;;;6.14;93.68
75991;BME280;64673;52.276;10.560;2023-11-21T10:02:49;100743.78;;;6.44;94.53
75991;BME280;64673;52.276;10.560;2023-11-21T10:05:15;100748.22;;;6.38;92.99
75991;BME280;64673;52.276;10.560;2023-11-21T10:07:43;100730.44;;;6.32;92.14
75991;BME280;64673;52.276;10.560;2023-11-21T10:10:10;100742.53;;;6.35;93.22
75991;BME280;64673;52.276;10.560;2023-11-21T10:12:35;100762.88;;;6.47;91.09
75991;BME280;64673;52.276;10.560;2023-11-21T10:15:02;100767.78;;;6.39;91.37
75991;BME280;64673;52.276;10.560;2023-11-21T10:17:31;100775.13;;;6.43;89.85
75991;BME280;64673;52.276;10.560;2023-11-21T10:20:05;100779.56;;;6.26;91.10
75991;BME280;64673;52.276;10.560;2023-11-21T10:22:45;100776.63;;;6.39;92.71
75991;BME280;64673;52.276;10.560;2023-11-21T10:25:12;100772.06;;;6.51;90.81
75991;BME280;64673;52.276;10.560;2023-11-21T10:27:40;100776.97;;;6.54;90.89
75991;BME280;64673;52.276;10.560;2023-11-21T10:30:07;100758.91;;;6.50;90.48
75991;BME280;64673;52.276;10.560;2023-11-21T10:32:33;100788.69;;;6.65;90.12
75991;BME280;64673;52.276;10.560;2023-11-21T10:34:59;100778.75;;;6.77;89.46
75991;BME280;64673;52.276;10.560;2023-11-21T10:37:34;100783.78;;;6.74;88.08
75991;BME280;64673;52.276;10.560;2023-11-21T10:40:00;100787.13;;;6.81;88.96
75991;BME280;64673;52.276;10.560;2023-11-21T10:42:25;100785.84;;;6.83;88.04
75991;BME280;64673;52.276;10.560;2023-11-21T10:44:52;100797.75;;;6.76;87.88
75991;BME280;64673;52.276;10.560;2023-11-21T10:47:17;100800.75;;;6.79;87.46
75991;BME280;64673;52.276;10.560;2023-11-21T10:49:44;100792.34;;;6.87;89.77
75991;BME280;64673;52.276;10.560;2023-11-21T10:52:13;100798.22;;;7.01;88.15
75991;BME280;64673;52.276;10.560;2023-11-21T10:54:43;100802.16;;;6.82;88.02
75991;BME280;64673;52.276;10.560;2023-11-21T10:57:10;100807.81;;;6.97;88.33
75991;BME280;64673;52.276;10.560;2023-11-21T10:59:36;100813.09;;;6.80;86.69
75991;BME280;64673;52.276;10.560;2023-11-21T11:02:12;100816.31;;;6.66;88.01
75991;BME280;64673;52.276;10.560;2023-11-21T11:04:47;100815.56;;;6.82;87.35
75991;BME280;64673;52.276;10.560;2023-11-21T11:07:14;100815.34;;;6.72;88.10
75991;BME280;64673;52.276;10.560;2023-11-21T11:09:41;100823.84;;;6.80;89.93
75991;BME280;64673;52.276;10.560;2023-11-21T11:12:08;100821.22;;;6.97;88.26
75991;BME280;64673;52.276;10.560;2023-11-21T11:14:35;100813.66;;;6.94;89.72
75991;BME280;64673;52.276;10.560;2023-11-21T11:17:02;100830.56;;;6.94;87.31
75991;BME280;64673;52.276;10.560;2023-11-21T11:19:29;100828.31;;;7.03;89.73
75991;BME280;64673;52.276;10.560;2023-11-21T11:27:36;100830.22;;;6.91;87.19
75991;BME280;64673;52.276;10.560;2023-11-21T11:33:04;100833.09;;;7.01;88.26
75991;BME280;64673;52.276;10.560;2023-11-21T11:35:51;100837.63;;;7.01;86.47
75991;BME280;64673;52.276;10.560;2023-11-21T11:38:21;100848.13;;;7.02;87.40
75991;BME280;64673;52.276;10.560;2023-11-21T11:40:47;100844.78;;;6.95;89.09
75991;BME280;64673;52.276;10.560;2023-11-21T11:43:13;100857.06;;;6.68;86.90
75991;BME280;64673;52.276;10.560;2023-11-21T11:45:49;100857.38;;;6.94;87.92
75991;BME280;64673;52.276;10.560;2023-11-21T11:48:17;100859.69;;;6.91;85.65
75991;BME280;64673;52.276;10.560;2023-11-21T11:51:14;100864.72;;;6.99;85.90
75991;BME280;64673;52.276;10.560;2023-11-21T11:53:42;100866.59;;;6.87;84.43
75991;BME280;64673;52.276;10.560;2023-11-21T11:56:30;100865.66;;;6.81;86.45
75991;BME280;64673;52.276;10.560;2023-11-21T11:59:03;100858.72;;;6.69;85.96
75991;BME280;64673;52.276;10.560;2023-11-21T12:01:30;100864.03;;;6.80;87.03
75991;BME280;64673;52.276;10.560;2023-11-21T12:06:42;100867.31;;;7.11;88.28
75991;BME280;64673;52.276;10.560;2023-11-21T12:09:17;100867.94;;;7.01;86.82
75991;BME280;64673;52.276;10.560;2023-11-21T12:11:43;100873.03;;;7.14;84.98
75991;BME280;64673;52.276;10.560;2023-11-21T12:14:09;100875.03;;;7.35;86.61
75991;BME280;64673;52.276;10.560;2023-11-21T12:16:35;100882.31;;;7.23;83.91
75991;BME280;64673;52.276;10.560;2023-11-21T12:19:00;100888.19;;;7.20;83.68
75991;BME280;64673;52.276;10.560;2023-11-21T12:21:26;100896.47;;;7.19;84.95
75991;BME280;64673;52.276;10.560;2023-11-21T12:23:51;100892.16;;;7.18;82.70
75991;BME280;64673;52.276;10.560;2023-11-21T12:26:17;100892.75;;;7.20;84.32
75991;BME280;64673;52.276;10.560;2023-11-21T12:28:42;100897.75;;;7.16;84.38
75991;BME280;64673;52.276;10.560;2023-11-21T12:31:08;100894.91;;;6.94;82.12
75991;BME280;64673;52.276;10.560;2023-11-21T12:33:34;100899.66;;;7.04;82.41
75991;BME280;64673;52.276;10.560;2023-11-21T12:36:00;100909.66;;;7.20;83.35
75991;BME280;64673;52.276;10.560;2023-11-21T12:38:33;100914.91;;;7.15;82.32
75991;BME280;64673;52.276;10.560;2023-11-21T12:40:59;100920.25;;;7.15;82.74
75991;BME280;64673;52.276;10.560;2023-11-21T12:43:24;100929.97;;;7.05;82.91
75991;BME280;64673;52.276;10.560;2023-11-21T12:45:49;100928.81;;;7.01;82.33
75991;BME280;64673;52.276;10.560;2023-11-21T12:48:15;100929.09;;;6.76;83.31
75991;BME280;64673;52.276;10.560;2023-11-21T12:50:42;100933.66;;;6.52;82.84